createdAt,value
2018-07-07T00:01:36.460Z,10.30
2018-07-07T00:04:08.934Z,10.20
2018-07-07T00:06:40.028Z,10.10
2018-07-07T00:09:11.350Z,10.10
2018-07-07T00:11:43.048Z,10.10
2018-07-07T00:14:15.328Z,10.00
2018-07-07T00:16:46.631Z,10.00
2018-07-07T00:19:18.844Z,9.90
2018-07-07T00:21:50.843Z,9.90
2018-07-07T00:24:22.196Z,9.80
2018-07-07T00:26:52.806Z,9.80
2018-07-07T00:29:25.140Z,9.70
2018-07-07T00:31:57.350Z,9.70
2018-07-07T00:34:28.900Z,9.60
2018-07-07T00:37:00.390Z,9.60
2018-07-07T00:39:32.690Z,9.60
2018-07-07T00:42:05.148Z,9.50
2018-07-07T00:44:36.996Z,9.40
2018-07-07T00:47:08.322Z,9.40
2018-07-07T00:49:40.631Z,9.40
2018-07-07T00:52:12.360Z,9.30
2018-07-07T00:54:43.621Z,9.30
2018-07-07T00:57:15.772Z,9.30
2018-07-07T00:59:48.052Z,9.20
2018-07-07T01:02:21.658Z,9.20
2018-07-07T01:04:53.864Z,9.10
2018-07-07T01:07:26.001Z,9.00
2018-07-07T01:09:58.000Z,9.00
2018-07-07T01:12:29.453Z,9.00
2018-07-07T01:15:00.900Z,8.90
2018-07-07T01:17:33.026Z,8.80
2018-07-07T01:20:05.204Z,8.80
2018-07-07T01:22:36.328Z,8.70
2018-07-07T01:25:08.125Z,8.70
2018-07-07T01:27:40.308Z,8.60
2018-07-07T01:30:12.110Z,8.60
2018-07-07T01:32:43.581Z,8.50
2018-07-07T01:35:15.050Z,8.50
2018-07-07T01:37:47.139Z,8.40
2018-07-07T01:40:18.664Z,8.40
2018-07-07T01:42:49.942Z,8.30
2018-07-07T01:45:22.138Z,8.20
2018-07-07T01:47:54.206Z,8.20
2018-07-07T01:50:25.864Z,8.20
2018-07-07T01:52:57.194Z,8.10
2018-07-07T01:55:29.219Z,8.00
2018-07-07T01:58:01.582Z,8.00
2018-07-07T02:00:32.764Z,7.90
2018-07-07T02:03:04.480Z,7.90
2018-07-07T02:05:39.252Z,7.90
2018-07-07T02:08:11.382Z,7.80
2018-07-07T02:10:42.920Z,7.70
2018-07-07T02:13:14.221Z,7.70
2018-07-07T02:15:46.316Z,7.60
2018-07-07T02:18:17.774Z,7.50
2018-07-07T02:20:49.210Z,7.50
2018-07-07T02:23:22.250Z,7.40
2018-07-07T02:25:54.354Z,7.40
2018-07-07T02:28:25.670Z,7.30
2018-07-07T02:30:57.012Z,7.30
2018-07-07T02:33:28.966Z,7.20
2018-07-07T02:36:00.900Z,7.20
2018-07-07T02:38:32.260Z,7.10
2018-07-07T02:41:03.573Z,7.10
2018-07-07T02:43:35.608Z,7.00
2018-07-07T02:46:07.860Z,7.00
2018-07-07T02:48:39.559Z,6.90
2018-07-07T02:51:11.020Z,6.90
2018-07-07T02:53:43.027Z,6.90
2018-07-07T02:56:15.470Z,6.90
2018-07-07T02:58:46.993Z,6.80
2018-07-07T03:01:17.739Z,6.80
2018-07-07T03:03:49.830Z,6.80
2018-07-07T03:06:22.561Z,6.70
2018-07-07T03:08:53.617Z,6.70
2018-07-07T03:11:25.590Z,6.70
2018-07-07T03:13:57.531Z,6.70
2018-07-07T03:16:29.105Z,6.60
2018-07-07T03:19:00.541Z,6.60
2018-07-07T03:21:32.581Z,6.60
2018-07-07T03:24:03.889Z,6.60
2018-07-07T03:26:35.236Z,6.50
2018-07-07T03:29:06.790Z,6.50
2018-07-07T03:31:38.646Z,6.50
2018-07-07T03:34:10.477Z,6.40
2018-07-07T03:36:41.793Z,6.40
2018-07-07T03:39:13.385Z,6.40
2018-07-07T03:41:45.316Z,6.40
2018-07-07T03:44:16.615Z,6.40
2018-07-07T03:46:48.057Z,6.30
2018-07-07T03:49:20.307Z,6.30
2018-07-07T03:51:52.817Z,6.30
2018-07-07T03:54:24.133Z,6.30
2018-07-07T03:56:55.571Z,6.40
2018-07-07T03:59:26.955Z,6.50
2018-07-07T04:01:59.003Z,6.90
2018-07-07T04:04:30.316Z,8.10
2018-07-07T04:07:01.623Z,9.30
2018-07-07T04:09:34.865Z,10.20
2018-07-07T04:12:06.991Z,10.80
2018-07-07T04:14:38.572Z,10.30
2018-07-07T04:17:09.883Z,9.60
2018-07-07T04:19:42.235Z,9.00
2018-07-07T04:22:14.683Z,8.60
2018-07-07T04:24:46.149Z,8.40
2018-07-07T04:27:24.961Z,8.20
2018-07-07T04:29:57.066Z,8.20
2018-07-07T04:32:28.760Z,8.20
2018-07-07T04:35:00.588Z,8.20
2018-07-07T04:37:39.248Z,8.20
2018-07-07T04:40:13.098Z,8.40
2018-07-07T04:42:44.457Z,8.60
2018-07-07T04:45:16.456Z,9.20
2018-07-07T04:47:48.755Z,9.60
2018-07-07T04:50:20.046Z,10.00
2018-07-07T04:52:51.365Z,10.30
2018-07-07T04:55:23.417Z,10.50
2018-07-07T04:57:56.100Z,10.60
2018-07-07T05:00:27.751Z,10.80
2018-07-07T05:03:00.373Z,10.90
2018-07-07T05:05:32.209Z,11.00
2018-07-07T05:08:04.289Z,11.10
2018-07-07T05:10:35.499Z,11.20
2018-07-07T05:13:07.110Z,11.90
2018-07-07T05:15:39.187Z,12.90
2018-07-07T05:18:10.971Z,13.60
2018-07-07T05:20:42.351Z,14.10
2018-07-07T05:23:13.906Z,14.60
2018-07-07T05:25:45.961Z,15.00
2018-07-07T05:28:17.492Z,14.80
2018-07-07T05:30:49.159Z,15.00
2018-07-07T05:33:21.296Z,15.30
2018-07-07T05:35:54.364Z,15.70
2018-07-07T05:38:25.934Z,15.60
2018-07-07T05:40:57.328Z,15.50
2018-07-07T05:43:29.762Z,15.40
2018-07-07T05:46:01.926Z,15.10
2018-07-07T05:48:32.724Z,15.00
2018-07-07T05:51:04.295Z,15.20
2018-07-07T05:53:36.353Z,15.10
2018-07-07T05:56:08.567Z,15.00
2018-07-07T05:58:39.869Z,15.50
2018-07-07T06:01:11.376Z,15.90
2018-07-07T06:03:43.363Z,16.20
2018-07-07T06:06:14.867Z,16.60
2018-07-07T06:08:46.338Z,16.60
2018-07-07T06:13:50.252Z,16.70
2018-07-07T06:16:21.743Z,16.40
2018-07-07T06:18:53.207Z,16.60
2018-07-07T06:21:25.607Z,17.10
2018-07-07T06:23:57.783Z,17.10
2018-07-07T06:26:30.390Z,17.30
2018-07-07T06:29:02.133Z,17.50
2018-07-07T06:31:34.157Z,17.70
2018-07-07T06:34:07.273Z,17.70
2018-07-07T06:36:38.103Z,17.40
2018-07-07T06:39:08.937Z,17.20
2018-07-07T06:41:41.993Z,17.50
2018-07-07T06:44:14.171Z,17.70
2018-07-07T06:46:46.069Z,18.20
2018-07-07T06:49:18.293Z,18.50
2018-07-07T06:51:51.169Z,18.40
2018-07-07T06:54:22.460Z,18.30
2018-07-07T06:56:54.563Z,18.20
2018-07-07T06:59:26.970Z,18.30
2018-07-07T07:01:59.133Z,17.90
2018-07-07T07:04:30.619Z,17.70
2018-07-07T07:07:02.291Z,17.60
2018-07-07T07:09:34.805Z,17.90
2018-07-07T07:12:07.671Z,18.30
2018-07-07T07:14:39.980Z,18.50
2018-07-07T07:17:12.033Z,18.60
2018-07-07T07:19:45.447Z,18.70
2018-07-07T07:22:17.261Z,18.90
2018-07-07T07:24:49.395Z,18.50
2018-07-07T07:27:22.243Z,18.60
2018-07-07T07:29:55.013Z,18.50
2018-07-07T07:32:27.087Z,18.90
2018-07-07T07:34:59.222Z,18.90
2018-07-07T07:37:31.931Z,19.00
2018-07-07T07:40:05.028Z,19.20
2018-07-07T07:42:38.100Z,19.40
2018-07-07T07:45:17.486Z,19.40
2018-07-07T07:47:51.280Z,19.50
2018-07-07T07:50:23.358Z,19.60
2018-07-07T07:52:55.525Z,19.80
2018-07-07T07:55:28.335Z,19.90
2018-07-07T07:58:01.292Z,19.80
2018-07-07T08:00:33.358Z,20.00
2018-07-07T08:03:07.364Z,19.80
2018-07-07T08:05:40.869Z,19.70
2018-07-07T08:08:13.756Z,19.90
2018-07-07T08:10:47.498Z,20.00
2018-07-07T08:13:20.191Z,20.00
2018-07-07T08:15:53.018Z,20.00
2018-07-07T08:18:25.033Z,20.20
2018-07-07T08:20:57.138Z,20.20
2018-07-07T08:23:29.975Z,19.60
2018-07-07T08:26:04.535Z,19.40
2018-07-07T08:28:36.347Z,19.50
2018-07-07T08:31:08.591Z,19.80
2018-07-07T08:33:41.403Z,20.10
2018-07-07T08:36:14.505Z,20.10
2018-07-07T08:38:49.050Z,20.00
2018-07-07T08:41:22.535Z,20.40
2018-07-07T08:43:56.113Z,20.50
2018-07-07T08:46:28.165Z,20.40
2018-07-07T08:49:00.335Z,20.90
2018-07-07T08:51:35.286Z,21.40
2018-07-07T08:54:07.979Z,21.30
2018-07-07T08:56:41.133Z,21.20
2018-07-07T08:59:13.305Z,21.40
2018-07-07T09:01:45.781Z,21.60
2018-07-07T09:04:17.961Z,21.10
2018-07-07T09:06:50.414Z,21.40
2018-07-07T09:09:23.074Z,21.40
2018-07-07T09:11:56.543Z,21.30
2018-07-07T09:14:28.578Z,21.70
2018-07-07T09:17:01.871Z,21.70
2018-07-07T09:19:34.746Z,21.70
2018-07-07T09:22:07.828Z,22.00
2018-07-07T09:24:39.665Z,22.10
2018-07-07T09:27:12.160Z,21.70
2018-07-07T09:29:45.366Z,21.50
2018-07-07T09:32:17.584Z,21.90
2018-07-07T09:34:51.340Z,22.10
2018-07-07T09:37:24.063Z,21.90
2018-07-07T09:39:57.514Z,21.60
2018-07-07T09:42:29.596Z,21.70
2018-07-07T09:45:01.697Z,21.70
2018-07-07T09:47:34.473Z,21.70
2018-07-07T09:50:07.271Z,22.00
2018-07-07T09:52:39.404Z,22.10
2018-07-07T09:55:15.667Z,22.40
2018-07-07T09:57:49.112Z,22.30
2018-07-07T10:00:30.635Z,22.40
2018-07-07T10:03:08.490Z,22.50
2018-07-07T10:05:56.723Z,22.70
2018-07-07T10:08:30.169Z,22.90
2018-07-07T10:11:02.372Z,23.40
2018-07-07T10:13:36.129Z,23.60
2018-07-07T10:16:08.970Z,23.40
2018-07-07T10:18:41.120Z,23.40
2018-07-07T10:21:13.144Z,23.60
2018-07-07T10:23:48.588Z,23.60
2018-07-07T10:26:20.685Z,23.40
2018-07-07T10:28:53.346Z,23.30
2018-07-07T10:31:26.355Z,23.40
2018-07-07T10:33:59.569Z,23.20
2018-07-07T10:36:31.597Z,23.10
2018-07-07T10:39:05.265Z,22.60
2018-07-07T10:41:40.766Z,22.80
2018-07-07T10:44:13.380Z,23.00
2018-07-07T10:46:45.546Z,23.20
2018-07-07T10:49:18.091Z,23.30
2018-07-07T10:51:50.926Z,23.40
2018-07-07T10:54:23.282Z,23.60
2018-07-07T10:56:55.485Z,23.50
2018-07-07T10:59:28.340Z,23.40
2018-07-07T11:02:01.511Z,23.50
2018-07-07T11:04:33.677Z,23.40
2018-07-07T11:07:05.773Z,23.50
2018-07-07T11:09:39.256Z,23.50
2018-07-07T11:12:11.854Z,23.50
2018-07-07T11:14:44.340Z,23.30
2018-07-07T11:17:17.192Z,23.70
2018-07-07T11:19:51.465Z,24.00
2018-07-07T11:22:23.831Z,23.90
2018-07-07T11:24:55.810Z,23.80
2018-07-07T11:27:28.303Z,23.90
2018-07-07T11:30:01.712Z,24.10
2018-07-07T11:32:33.711Z,23.90
2018-07-07T11:35:06.191Z,24.10
2018-07-07T11:37:39.309Z,24.30
2018-07-07T11:40:11.904Z,24.50
2018-07-07T11:42:44.107Z,25.10
2018-07-07T11:45:17.047Z,25.70
2018-07-07T11:47:49.831Z,26.20
2018-07-07T11:50:23.981Z,26.30
2018-07-07T11:52:56.465Z,26.20
2018-07-07T11:55:31.399Z,26.20
2018-07-07T11:58:04.230Z,25.90
2018-07-07T12:00:36.681Z,25.30
2018-07-07T12:03:09.564Z,24.70
2018-07-07T12:05:42.421Z,24.50
2018-07-07T12:08:15.633Z,24.40
2018-07-07T12:10:48.835Z,24.30
2018-07-07T12:13:21.689Z,24.40
2018-07-07T12:15:54.567Z,24.60
2018-07-07T12:18:26.561Z,24.80
2018-07-07T12:20:58.975Z,25.00
2018-07-07T12:23:32.657Z,25.00
2018-07-07T12:26:05.575Z,24.70
2018-07-07T12:28:37.741Z,24.30
2018-07-07T12:31:10.313Z,24.20
2018-07-07T12:33:43.082Z,24.40
2018-07-07T12:36:15.929Z,24.40
2018-07-07T12:38:47.877Z,24.50
2018-07-07T12:41:21.276Z,24.30
2018-07-07T12:43:54.033Z,24.20
2018-07-07T12:46:26.221Z,24.10
2018-07-07T12:48:59.513Z,24.70
2018-07-07T12:51:32.293Z,25.00
2018-07-07T12:54:05.143Z,25.30
2018-07-07T12:56:37.433Z,25.20
2018-07-07T12:59:10.579Z,25.50
2018-07-07T13:01:44.307Z,25.60
2018-07-07T13:04:17.175Z,25.60
2018-07-07T13:06:49.235Z,25.60
2018-07-07T13:09:22.355Z,25.70
2018-07-07T13:11:55.721Z,25.90
2018-07-07T13:14:27.753Z,25.60
2018-07-07T13:16:59.743Z,25.50
2018-07-07T13:19:32.500Z,25.30
2018-07-07T13:22:05.285Z,25.00
2018-07-07T13:24:37.433Z,25.00
2018-07-07T13:27:09.771Z,24.90
2018-07-07T13:29:42.503Z,24.40
2018-07-07T13:32:15.569Z,24.90
2018-07-07T13:34:47.761Z,25.40
2018-07-07T13:37:20.548Z,25.70
2018-07-07T13:39:54.227Z,25.90
2018-07-07T13:42:26.839Z,25.70
2018-07-07T13:44:59.137Z,25.20
2018-07-07T13:47:32.091Z,25.10
2018-07-07T13:50:04.985Z,25.30
2018-07-07T13:52:37.465Z,25.50
2018-07-07T13:55:09.490Z,25.50
2018-07-07T13:57:43.815Z,25.40
2018-07-07T14:00:15.547Z,25.20
2018-07-07T14:02:47.911Z,25.30
2018-07-07T14:05:20.747Z,25.30
2018-07-07T14:07:53.617Z,25.20
2018-07-07T14:10:25.675Z,25.30
2018-07-07T14:12:57.685Z,25.00
2018-07-07T14:15:30.627Z,24.80
2018-07-07T14:18:03.421Z,24.60
2018-07-07T14:20:35.499Z,24.60
2018-07-07T14:23:07.601Z,24.90
2018-07-07T14:25:40.843Z,24.70
2018-07-07T14:28:13.391Z,24.40
2018-07-07T14:30:45.579Z,24.20
2018-07-07T14:33:18.359Z,23.90
2018-07-07T14:35:51.619Z,23.70
2018-07-07T14:38:30.776Z,23.60
2018-07-07T14:41:13.919Z,23.40
2018-07-07T14:44:02.428Z,23.30
2018-07-07T14:46:36.178Z,23.40
2018-07-07T14:49:08.945Z,23.40
2018-07-07T14:51:41.755Z,23.50
2018-07-07T14:54:15.661Z,23.50
2018-07-07T14:56:47.790Z,23.50
2018-07-07T14:59:20.461Z,23.50
2018-07-07T15:01:53.437Z,23.60
2018-07-07T15:04:25.818Z,23.60
2018-07-07T15:06:58.563Z,23.70
2018-07-07T15:09:31.260Z,23.90
2018-07-07T15:12:04.063Z,24.20
2018-07-07T15:14:39.126Z,23.90
2018-07-07T15:17:11.784Z,24.00
2018-07-07T15:19:45.268Z,24.30
2018-07-07T15:22:17.328Z,24.50
2018-07-07T15:24:49.919Z,24.30
2018-07-07T15:27:24.222Z,24.10
2018-07-07T15:29:57.048Z,23.70
2018-07-07T15:32:29.195Z,23.50
2018-07-07T15:35:01.280Z,23.30
2018-07-07T15:37:33.823Z,23.20
2018-07-07T15:40:07.109Z,23.20
2018-07-07T15:42:38.203Z,23.30
2018-07-07T15:45:21.809Z,23.30
2018-07-07T15:47:54.597Z,23.30
2018-07-07T15:50:26.799Z,23.50
2018-07-07T15:52:58.781Z,23.50
2018-07-07T15:58:04.893Z,23.30
2018-07-07T16:00:37.557Z,23.30
2018-07-07T16:03:09.707Z,23.30
2018-07-07T16:05:42.558Z,23.30
2018-07-07T16:08:14.747Z,23.30
2018-07-07T16:10:46.698Z,23.20
2018-07-07T16:13:19.373Z,23.20
2018-07-07T16:15:51.604Z,23.20
2018-07-07T16:18:25.050Z,23.40
2018-07-07T16:23:29.414Z,23.50
2018-07-07T16:26:02.432Z,23.40
2018-07-07T16:28:34.203Z,23.40
2018-07-07T16:31:06.401Z,23.30
2018-07-07T16:33:39.021Z,23.30
2018-07-07T16:36:11.276Z,23.30
2018-07-07T16:38:43.341Z,23.20
2018-07-07T16:41:16.597Z,23.20
2018-07-07T16:43:48.906Z,23.20
2018-07-07T16:46:21.348Z,23.20
2018-07-07T16:48:53.714Z,23.20
2018-07-07T16:51:26.798Z,23.20
2018-07-07T16:54:02.351Z,23.20
2018-07-07T16:56:34.296Z,23.10
2018-07-07T16:59:06.448Z,23.10
2018-07-07T17:01:38.711Z,23.20
2018-07-07T17:04:10.942Z,23.10
2018-07-07T17:06:42.984Z,23.10
2018-07-07T17:09:15.184Z,23.00
2018-07-07T17:11:48.635Z,23.00
2018-07-07T17:14:21.880Z,23.10
2018-07-07T17:16:54.026Z,23.00
2018-07-07T17:19:26.917Z,22.80
2018-07-07T17:22:00.527Z,22.70
2018-07-07T17:24:33.654Z,22.70
2018-07-07T17:27:08.622Z,22.70
2018-07-07T17:29:41.568Z,22.70
2018-07-07T17:32:14.372Z,22.70
2018-07-07T17:34:47.052Z,22.60
2018-07-07T17:37:24.650Z,22.50
2018-07-07T17:39:57.526Z,22.40
2018-07-07T17:42:29.902Z,22.40
2018-07-07T17:45:03.466Z,22.30
2018-07-07T17:47:36.522Z,22.30
2018-07-07T17:50:10.152Z,22.20
2018-07-07T17:52:42.178Z,22.10
2018-07-07T17:55:14.614Z,22.10
2018-07-07T17:57:47.079Z,22.00
2018-07-07T18:00:19.272Z,22.00
2018-07-07T18:02:51.998Z,21.90
2018-07-07T18:05:24.778Z,21.80
2018-07-07T18:07:57.512Z,21.80
2018-07-07T18:10:29.772Z,21.80
2018-07-07T18:13:01.397Z,21.70
2018-07-07T18:15:34.064Z,21.60
2018-07-07T18:18:07.576Z,21.50
2018-07-07T18:20:39.756Z,21.40
2018-07-07T18:23:11.938Z,21.20
2018-07-07T18:25:44.525Z,21.10
2018-07-07T18:28:16.659Z,21.10
2018-07-07T18:30:48.642Z,21.00
2018-07-07T18:33:21.734Z,20.90
2018-07-07T18:35:54.520Z,20.80
2018-07-07T18:38:27.272Z,20.70
2018-07-07T18:40:59.414Z,20.60
2018-07-07T18:43:32.896Z,20.40
2018-07-07T18:46:06.120Z,20.30
2018-07-07T18:48:38.572Z,20.30
2018-07-07T18:51:10.662Z,20.10
2018-07-07T18:53:43.472Z,20.00
2018-07-07T18:56:15.636Z,19.80
2018-07-07T18:58:47.956Z,19.70
2018-07-07T19:01:22.152Z,19.50
2018-07-07T19:03:55.256Z,19.30
2018-07-07T19:06:27.368Z,19.20
2018-07-07T19:08:59.478Z,19.10
2018-07-07T19:11:32.127Z,18.90
2018-07-07T19:14:05.212Z,18.90
2018-07-07T19:16:38.283Z,18.70
2018-07-07T19:19:10.799Z,18.70
2018-07-07T19:21:49.154Z,18.60
2018-07-07T19:24:27.344Z,18.50
2018-07-07T19:27:03.685Z,18.30
2018-07-07T19:29:36.724Z,18.20
2018-07-07T19:32:14.491Z,18.00
2018-07-07T19:34:51.930Z,17.80
2018-07-07T19:37:24.788Z,17.60
2018-07-07T19:39:57.128Z,17.40
2018-07-07T19:42:28.820Z,17.20
2018-07-07T19:45:00.428Z,17.00
2018-07-07T19:47:32.431Z,16.80
2018-07-07T19:50:05.493Z,16.70
2018-07-07T19:52:38.151Z,16.50
2018-07-07T19:55:10.913Z,16.40
2018-07-07T19:57:43.443Z,16.20
2018-07-07T20:00:15.927Z,16.10
2018-07-07T20:02:48.458Z,15.90
2018-07-07T20:05:20.682Z,15.80
2018-07-07T20:07:53.434Z,15.70
2018-07-07T20:10:25.382Z,15.60
2018-07-07T20:12:57.069Z,15.50
2018-07-07T20:16:41.709Z,15.30
2018-07-07T20:19:18.431Z,15.20
2018-07-07T20:22:09.495Z,15.10
2018-07-07T20:24:41.256Z,15.00
2018-07-07T20:27:17.961Z,14.80
2018-07-07T20:29:50.489Z,14.80
2018-07-07T20:32:27.471Z,14.70
2018-07-07T20:34:58.951Z,14.70
2018-07-07T20:37:31.641Z,14.70
2018-07-07T20:40:04.346Z,14.70
2018-07-07T20:42:36.035Z,14.70
2018-07-07T20:45:07.539Z,14.80
2018-07-07T20:47:39.627Z,14.80
2018-07-07T20:50:11.619Z,14.80
2018-07-07T20:52:43.467Z,14.80
2018-07-07T20:55:15.937Z,14.80
2018-07-07T20:57:48.230Z,14.80
2018-07-07T21:00:18.899Z,14.80
2018-07-07T21:02:50.908Z,14.70
2018-07-07T21:05:22.950Z,14.60
2018-07-07T21:07:55.498Z,14.50
2018-07-07T21:10:26.888Z,14.40
2018-07-07T21:12:58.433Z,14.30
2018-07-07T21:15:30.820Z,14.20
2018-07-07T21:18:03.103Z,14.10
2018-07-07T21:20:34.633Z,13.90
2018-07-07T21:23:06.119Z,13.90
2018-07-07T21:25:38.284Z,13.80
2018-07-07T21:28:11.175Z,13.80
2018-07-07T21:30:43.063Z,13.80
2018-07-07T21:33:14.846Z,13.80
2018-07-07T21:35:47.445Z,13.70
2018-07-07T21:38:19.362Z,13.60
2018-07-07T21:40:51.146Z,13.50
2018-07-07T21:43:23.351Z,13.50
2018-07-07T21:45:55.552Z,13.40
2018-07-07T21:48:27.043Z,13.30
2018-07-07T21:50:58.112Z,13.30
2018-07-07T21:53:30.217Z,13.20
2018-07-07T21:56:03.302Z,13.10
2018-07-07T21:58:34.420Z,13.10
2018-07-07T22:01:17.818Z,13.10
2018-07-07T22:03:55.266Z,13.10
2018-07-07T22:06:31.654Z,13.10
2018-07-07T22:09:03.072Z,13.10
2018-07-07T22:11:34.840Z,13.20
2018-07-07T22:14:07.384Z,13.10
2018-07-07T22:16:38.792Z,13.20
2018-07-07T22:19:10.109Z,13.30
2018-07-07T22:21:53.115Z,13.30
2018-07-07T22:24:24.735Z,13.40
2018-07-07T22:27:00.053Z,13.40
2018-07-07T22:29:32.292Z,13.50
2018-07-07T22:32:06.303Z,13.50
2018-07-07T22:34:39.014Z,13.50
2018-07-07T22:37:10.480Z,13.50
2018-07-07T22:39:43.629Z,13.60
2018-07-07T22:42:16.462Z,13.60
2018-07-07T22:44:49.062Z,13.60
2018-07-07T22:47:21.177Z,13.60
2018-07-07T22:49:53.137Z,13.60
2018-07-07T22:52:24.665Z,13.50
2018-07-07T22:54:56.467Z,13.50
2018-07-07T22:57:28.594Z,13.50
2018-07-07T23:00:01.179Z,13.40
2018-07-07T23:02:40.008Z,13.40
2018-07-07T23:05:11.237Z,13.40
2018-07-07T23:07:43.020Z,13.40
2018-07-07T23:10:14.825Z,13.40
2018-07-07T23:12:46.167Z,13.50
2018-07-07T23:15:18.859Z,13.50
2018-07-07T23:17:50.698Z,13.50
2018-07-07T23:20:21.938Z,13.50
2018-07-07T23:22:54.873Z,13.50
2018-07-07T23:25:26.855Z,13.60
2018-07-07T23:27:59.014Z,13.70
2018-07-07T23:30:30.331Z,13.70
2018-07-07T23:33:01.753Z,13.80
2018-07-07T23:35:33.673Z,13.90
2018-07-07T23:38:05.620Z,14.10
2018-07-07T23:40:37.934Z,14.30
2018-07-07T23:43:09.660Z,14.50
2018-07-07T23:45:41.598Z,14.60
2018-07-07T23:48:13.683Z,14.80
2018-07-07T23:50:45.016Z,14.90
2018-07-07T23:53:17.373Z,14.90
2018-07-07T23:55:50.189Z,15.00
2018-07-07T23:58:21.827Z,14.90
